Terminal Aerodrome Forecast
Issued by NWS

Home | Current Version | Previous Version | Text Only | Print | Product List | Glossary On
Versions: 1 2 3 4 5 6 7 8 9 10 11 12 13 14
000
FTUS43 KEAX 251700
TAFSTJ
TAF
KSTJ 251720Z 2518/2618 24013KT P6SM SCT100
     FM252200 35020G29KT P6SM VCSH OVC018
      TEMPO 2522/2602 4SM -RASN BR
     FM260300 36022G30KT P6SM OVC015
     FM261600 35014KT P6SM BKN020=

USA.gov is the U.S. government's official web portal to all federal, state and local government web resources and services.